Time;durP1;ratioP1;P1;durP2;ratioP2;P2;SDS_P1;SDS_P2;PMS_P1;PMS_P2;Temp;Humidity;BMP_temperature;BMP_pressure;BME280_temperature;BME280_humidity;BME280_pressure;Samples;Min_cycle;Max_cycle;Signal;HPM_P1;HPM_P2
2023/09/19 00:00:57;;;;;;;8.73;4.63;;;17.00;99.90;;;;;;5047036;28;20825;-74
2023/09/19 00:03:27;;;;;;;9.90;4.33;;;17.10;99.90;;;;;;5054417;28;20238;-76
2023/09/19 00:05:56;;;;;;;6.73;4.53;;;17.10;99.90;;;;;;5055285;28;20555;-75
2023/09/19 00:08:25;;;;;;;5.28;4.35;;;17.20;99.90;;;;;;5054206;28;20435;-75
2023/09/19 00:10:53;;;;;;;7.00;4.53;;;17.20;99.90;;;;;;5048658;28;20601;-75
2023/09/19 00:13:23;;;;;;;7.90;4.30;;;17.20;99.90;;;;;;5044864;28;20453;-75
2023/09/19 00:15:50;;;;;;;6.27;4.20;;;17.20;99.90;;;;;;5052815;28;20493;-75
2023/09/19 00:18:18;;;;;;;5.47;4.47;;;17.20;99.90;;;;;;5051860;28;20473;-75
2023/09/19 00:20:47;;;;;;;6.90;3.90;;;17.20;99.90;;;;;;5043221;28;20447;-74
2023/09/19 00:23:16;;;;;;;9.07;3.47;;;17.20;99.90;;;;;;5045881;28;20506;-76
2023/09/19 00:25:43;;;;;;;5.65;3.85;;;17.20;99.90;;;;;;5053299;28;20300;-75
2023/09/19 00:28:11;;;;;;;8.47;4.10;;;17.20;99.90;;;;;;5049276;28;20207;-75
2023/09/19 00:30:38;;;;;;;5.87;3.93;;;17.20;99.90;;;;;;5047447;28;20478;-74
2023/09/19 00:33:07;;;;;;;12.60;4.40;;;17.20;99.90;;;;;;5054688;28;20534;-75
2023/09/19 00:35:34;;;;;;;9.80;4.50;;;17.20;99.90;;;;;;5048101;28;20203;-75
2023/09/19 00:38:03;;;;;;;9.60;4.43;;;17.20;99.90;;;;;;5052260;28;20450;-75
2023/09/19 00:40:32;;;;;;;7.63;4.10;;;17.20;99.90;;;;;;5051876;28;20917;-74
2023/09/19 00:43:00;;;;;;;6.33;3.70;;;17.20;99.90;;;;;;5054114;28;20442;-75
2023/09/19 00:45:28;;;;;;;5.73;3.73;;;17.30;99.90;;;;;;5054293;28;20444;-75
2023/09/19 00:47:56;;;;;;;7.20;4.00;;;17.20;99.90;;;;;;5051154;28;20541;-74
2023/09/19 00:50:26;;;;;;;8.30;3.30;;;17.20;99.90;;;;;;5049004;28;20450;-74
2023/09/19 00:52:56;;;;;;;8.03;3.70;;;17.20;99.90;;;;;;5047785;28;20440;-75
2023/09/19 00:55:32;;;;;;;5.80;3.90;;;17.30;99.90;;;;;;5050328;28;20532;-75
2023/09/19 00:57:59;;;;;;;8.27;4.35;;;17.30;99.90;;;;;;5047625;28;20482;-75
2023/09/19 01:00:26;;;;;;;5.37;3.50;;;17.30;99.90;;;;;;5050123;28;20654;-75
2023/09/19 01:02:53;;;;;;;5.83;4.20;;;17.30;99.90;;;;;;5053255;28;20446;-76
2023/09/19 01:05:21;;;;;;;11.67;4.87;;;17.30;99.90;;;;;;5052914;28;20939;-75
2023/09/19 01:07:53;;;;;;;6.37;3.70;;;17.20;99.90;;;;;;5054186;28;20541;-75
2023/09/19 01:10:21;;;;;;;8.03;4.00;;;17.20;99.90;;;;;;5051226;28;20440;-74
2023/09/19 01:12:56;;;;;;;8.52;3.92;;;17.20;99.90;;;;;;5051942;28;20440;-75
2023/09/19 01:15:34;;;;;;;7.17;3.03;;;17.20;99.90;;;;;;5048494;28;20241;-75
2023/09/19 01:18:09;;;;;;;8.10;4.90;;;17.10;99.90;;;;;;5049557;28;20469;-75
2023/09/19 01:20:43;;;;;;;5.72;4.20;;;17.10;99.90;;;;;;5050284;28;20494;-74
2023/09/19 01:23:18;;;;;;;8.65;4.20;;;17.10;99.90;;;;;;5045162;28;20233;-75
2023/09/19 01:26:18;;;;;;;6.77;3.50;;;16.90;99.90;;;;;;5030863;28;20607;-74
2023/09/19 01:29:02;;;;;;;3.67;3.17;;;16.80;99.90;;;;;;5048724;28;20516;-75
2023/09/19 01:31:35;;;;;;;4.00;3.00;;;16.80;99.90;;;;;;5033378;28;20208;-75
2023/09/19 01:34:04;;;;;;;5.85;3.28;;;16.60;99.90;;;;;;5035333;28;20206;-74
2023/09/19 01:36:35;;;;;;;7.72;2.75;;;16.60;99.90;;;;;;5050424;28;20231;-74
2023/09/19 01:39:05;;;;;;;3.45;2.33;;;16.50;99.90;;;;;;5047073;28;20213;-74
2023/09/19 01:41:49;;;;;;;5.43;2.30;;;16.30;99.90;;;;;;5051276;28;20203;-75
2023/09/19 01:44:23;;;;;;;6.55;2.53;;;16.30;99.90;;;;;;5049495;28;20541;-74
2023/09/19 01:46:52;;;;;;;3.08;1.70;;;16.20;99.90;;;;;;5035124;28;20216;-74
2023/09/19 01:49:28;;;;;;;2.78;1.65;;;16.10;99.90;;;;;;5052913;28;20207;-75
2023/09/19 01:52:08;;;;;;;2.85;1.67;;;16.10;99.90;;;;;;5030198;28;20201;-75
2023/09/19 01:54:59;;;;;;;3.30;2.00;;;16.00;99.90;;;;;;5051432;28;20615;-75
2023/09/19 01:57:32;;;;;;;2.22;1.95;;;16.00;99.90;;;;;;5050742;28;20225;-74
2023/09/19 02:00:06;;;;;;;3.28;1.80;;;15.90;99.90;;;;;;5046644;28;20610;-75
2023/09/19 02:02:37;;;;;;;2.88;1.50;;;15.90;99.90;;;;;;5053077;28;20202;-75
2023/09/19 02:05:05;;;;;;;2.63;1.42;;;15.80;99.90;;;;;;5053555;28;20237;-75
2023/09/19 02:07:32;;;;;;;7.20;2.78;;;15.80;99.90;;;;;;5050178;28;20317;-75
2023/09/19 02:10:00;;;;;;;2.38;1.60;;;15.80;99.90;;;;;;5045995;28;20532;-75
2023/09/19 02:12:27;;;;;;;1.80;1.40;;;15.80;99.90;;;;;;5050794;28;20684;-75
2023/09/19 02:14:54;;;;;;;3.50;2.00;;;15.80;99.90;;;;;;5050289;28;20585;-75
2023/09/19 02:17:20;;;;;;;6.20;1.58;;;15.70;99.90;;;;;;5052524;28;20316;-75
2023/09/19 02:19:49;;;;;;;2.20;1.33;;;15.70;99.90;;;;;;5053047;28;20231;-73
2023/09/19 02:22:16;;;;;;;2.33;1.55;;;15.70;99.90;;;;;;5050837;28;20217;-74
2023/09/19 02:24:43;;;;;;;2.35;1.13;;;15.70;99.90;;;;;;5044059;28;20196;-74
2023/09/19 02:27:15;;;;;;;3.15;1.52;;;15.60;99.90;;;;;;5051126;28;20673;-74
2023/09/19 02:29:42;;;;;;;6.10;1.85;;;15.60;99.90;;;;;;5045311;28;20206;-74
2023/09/19 02:32:10;;;;;;;4.15;1.75;;;15.50;99.90;;;;;;5047885;28;20279;-75
2023/09/19 02:34:38;;;;;;;3.22;1.60;;;15.50;99.90;;;;;;5051250;28;20232;-75
2023/09/19 02:37:08;;;;;;;4.00;1.88;;;15.50;99.90;;;;;;5052017;28;20289;-75
2023/09/19 02:39:35;;;;;;;1.85;1.50;;;15.50;99.90;;;;;;5051325;28;20573;-75
2023/09/19 02:42:03;;;;;;;5.82;2.20;;;15.50;99.90;;;;;;5049697;28;20203;-75
2023/09/19 02:44:30;;;;;;;6.45;1.70;;;15.50;99.90;;;;;;5052412;28;20214;-75
2023/09/19 02:46:58;;;;;;;5.70;1.85;;;15.50;99.90;;;;;;5052147;28;20764;-73
2023/09/19 02:49:25;;;;;;;3.70;2.10;;;15.50;99.90;;;;;;5043258;28;20612;-74
2023/09/19 02:51:52;;;;;;;2.47;1.55;;;15.50;99.90;;;;;;5048106;28;20567;-74
2023/09/19 02:54:21;;;;;;;4.40;1.73;;;15.50;99.90;;;;;;5052548;28;20207;-76
2023/09/19 02:56:49;;;;;;;4.30;2.13;;;15.50;99.90;;;;;;5051685;28;20217;-73
2023/09/19 02:59:19;;;;;;;4.32;1.63;;;15.50;99.90;;;;;;5046632;28;20209;-75
2023/09/19 03:01:47;;;;;;;6.75;2.13;;;15.40;99.90;;;;;;5052078;28;20211;-74
2023/09/19 03:04:19;;;;;;;4.32;1.75;;;15.40;99.90;;;;;;5050810;28;20210;-75
2023/09/19 03:06:48;;;;;;;3.47;1.77;;;15.30;99.90;;;;;;5050287;28;20211;-74
2023/09/19 03:09:15;;;;;;;8.93;2.08;;;15.20;99.90;;;;;;5044413;28;20200;-75
2023/09/19 03:11:46;;;;;;;6.55;1.85;;;15.10;99.90;;;;;;5044981;28;20201;-74
2023/09/19 03:14:15;;;;;;;4.07;2.15;;;15.20;99.90;;;;;;5049410;28;20214;-75
2023/09/19 03:16:42;;;;;;;8.13;2.22;;;15.10;99.90;;;;;;5050697;28;20223;-75
2023/09/19 03:19:10;;;;;;;5.25;2.13;;;15.00;99.90;;;;;;5052578;28;20204;-75
2023/09/19 03:21:38;;;;;;;6.25;2.55;;;15.00;99.90;;;;;;5050342;28;20195;-74
2023/09/19 03:24:06;;;;;;;8.07;2.70;;;15.00;99.90;;;;;;5051759;28;20211;-74
2023/09/19 03:26:34;;;;;;;4.95;2.33;;;15.00;99.90;;;;;;5044449;28;20223;-75
2023/09/19 03:29:06;;;;;;;5.20;2.00;;;15.00;99.90;;;;;;5051592;28;20230;-74
2023/09/19 03:31:33;;;;;;;4.47;2.10;;;14.90;99.90;;;;;;5050794;28;20203;-74
2023/09/19 03:34:00;;;;;;;3.42;1.95;;;14.90;99.90;;;;;;5052237;28;20253;-74
2023/09/19 03:36:28;;;;;;;4.07;2.75;;;14.90;99.90;;;;;;5051443;28;20690;-76
2023/09/19 03:38:56;;;;;;;3.95;2.42;;;14.80;99.90;;;;;;5051756;28;20214;-74
2023/09/19 03:41:23;;;;;;;5.63;2.25;;;14.80;99.90;;;;;;5051670;28;20199;-74
2023/09/19 03:43:51;;;;;;;5.90;1.98;;;14.80;99.90;;;;;;5051928;28;20200;-75
2023/09/19 03:46:19;;;;;;;6.25;2.75;;;14.80;99.90;;;;;;5048815;28;20223;-74
2023/09/19 03:48:46;;;;;;;4.13;2.22;;;14.80;99.90;;;;;;5050255;28;20212;-75
2023/09/19 03:51:13;;;;;;;7.90;3.85;;;14.80;99.90;;;;;;5045379;28;20278;-74
2023/09/19 03:53:40;;;;;;;8.38;3.20;;;14.80;99.90;;;;;;5049382;28;20249;-76
2023/09/19 03:56:08;;;;;;;4.95;2.88;;;14.70;99.90;;;;;;5048820;28;20259;-74
2023/09/19 03:58:38;;;;;;;6.28;2.10;;;14.70;99.90;;;;;;5052313;28;20193;-75
2023/09/19 04:01:06;;;;;;;13.10;2.50;;;14.70;99.90;;;;;;5054944;28;20267;-75
2023/09/19 04:03:46;;;;;;;4.90;2.30;;;14.70;99.90;;;;;;5061210;28;20290;-75
2023/09/19 04:06:13;;;;;;;3.28;2.28;;;14.70;99.90;;;;;;5058125;28;20234;-76
2023/09/19 04:08:40;;;;;;;6.75;2.60;;;14.70;99.90;;;;;;5055792;28;20215;-75
2023/09/19 04:11:07;;;;;;;4.63;2.78;;;14.70;99.90;;;;;;5055300;28;20233;-75
2023/09/19 04:13:34;;;;;;;11.90;3.75;;;14.70;99.90;;;;;;5054907;28;20676;-75
2023/09/19 04:16:01;;;;;;;8.70;2.97;;;14.70;99.90;;;;;;5052380;28;20329;-74
2023/09/19 04:18:30;;;;;;;6.63;2.58;;;14.70;99.90;;;;;;5049124;28;20287;-73
2023/09/19 04:20:59;;;;;;;7.05;3.22;;;14.70;99.90;;;;;;5053019;28;20207;-74
2023/09/19 04:23:28;;;;;;;6.45;2.63;;;14.80;99.90;;;;;;5055081;28;20234;-75
2023/09/19 04:25:54;;;;;;;7.57;2.45;;;14.70;99.90;;;;;;5048935;28;20219;-74
2023/09/19 04:28:23;;;;;;;8.13;2.72;;;14.70;99.90;;;;;;5054195;28;20215;-74
2023/09/19 04:30:50;;;;;;;5.95;4.10;;;14.60;99.90;;;;;;5054533;28;20206;-75
2023/09/19 04:33:18;;;;;;;7.13;3.35;;;14.60;99.90;;;;;;5054589;28;20200;-76
2023/09/19 04:35:45;;;;;;;5.80;2.80;;;14.60;99.90;;;;;;5054439;28;20215;-75
2023/09/19 04:38:14;;;;;;;5.57;3.03;;;14.60;99.90;;;;;;5047374;28;20271;-74
2023/09/19 04:40:41;;;;;;;7.45;3.63;;;14.60;99.90;;;;;;5054398;28;20193;-75
2023/09/19 04:43:08;;;;;;;6.63;2.55;;;14.50;99.90;;;;;;5053867;28;20218;-75
2023/09/19 04:45:35;;;;;;;5.50;2.83;;;14.50;99.90;;;;;;5048754;28;20294;-76
2023/09/19 04:48:03;;;;;;;8.70;2.97;;;14.60;99.90;;;;;;5052062;28;20302;-76
2023/09/19 04:50:31;;;;;;;7.57;2.70;;;14.60;99.90;;;;;;5053288;28;20216;-75
2023/09/19 04:52:57;;;;;;;5.82;3.33;;;14.60;99.90;;;;;;5054014;28;20208;-74
2023/09/19 04:55:26;;;;;;;11.55;3.80;;;14.50;99.90;;;;;;5054072;28;20228;-74
2023/09/19 04:57:53;;;;;;;7.90;3.17;;;14.50;99.90;;;;;;5051986;28;20196;-76
2023/09/19 05:00:24;;;;;;;8.38;3.17;;;14.50;99.90;;;;;;5052351;28;20203;-75
2023/09/19 05:02:52;;;;;;;4.15;2.83;;;14.50;99.90;;;;;;5053842;28;20203;-74
2023/09/19 05:05:19;;;;;;;13.93;4.25;;;14.50;99.90;;;;;;5051779;28;20208;-74
2023/09/19 05:07:47;;;;;;;8.90;3.15;;;14.60;99.90;;;;;;5050995;28;20218;-75
2023/09/19 05:10:14;;;;;;;9.95;3.10;;;14.60;99.90;;;;;;5053623;28;20199;-74
2023/09/19 05:12:45;;;;;;;11.25;3.08;;;14.60;99.90;;;;;;5050274;28;20214;-75
2023/09/19 05:15:12;;;;;;;8.95;2.72;;;14.60;99.90;;;;;;5049291;28;20287;-75
2023/09/19 05:17:39;;;;;;;11.77;3.22;;;14.60;99.90;;;;;;5044093;28;20224;-74
2023/09/19 05:20:24;;;;;;;8.15;2.65;;;14.70;99.90;;;;;;5049696;28;20204;-75
2023/09/19 05:23:01;;;;;;;10.27;3.60;;;14.60;99.90;;;;;;5046392;28;20277;-76
2023/09/19 05:25:29;;;;;;;6.90;3.40;;;14.70;99.90;;;;;;5033936;28;20202;-75
2023/09/19 05:27:58;;;;;;;11.65;3.17;;;14.80;99.90;;;;;;5042353;28;20262;-73
2023/09/19 05:30:27;;;;;;;10.50;3.38;;;14.80;99.90;;;;;;5053152;28;20217;-76
2023/09/19 05:32:55;;;;;;;6.85;3.00;;;14.90;99.90;;;;;;5049148;28;20207;-74
2023/09/19 05:35:23;;;;;;;13.30;3.83;;;15.00;99.90;;;;;;5048145;28;20287;-74
2023/09/19 05:37:52;;;;;;;8.18;2.90;;;15.10;99.90;;;;;;5042001;28;20220;-74
2023/09/19 05:40:19;;;;;;;7.75;3.60;;;15.20;99.90;;;;;;5039698;28;20212;-74
2023/09/19 05:42:47;;;;;;;11.88;3.75;;;15.30;99.90;;;;;;5043322;28;20246;-73
2023/09/19 05:45:21;;;;;;;21.63;4.88;;;15.30;99.90;;;;;;5046832;28;20230;-75
2023/09/19 05:47:49;;;;;;;9.07;3.95;;;15.50;99.90;;;;;;5034247;28;20227;-75
2023/09/19 05:50:18;;;;;;;12.13;5.30;;;15.50;99.90;;;;;;5047171;28;20250;-75
2023/09/19 05:52:52;;;;;;;19.50;5.15;;;15.60;99.90;;;;;;5051883;28;20200;-75
2023/09/19 05:55:19;;;;;;;11.55;4.47;;;15.60;99.90;;;;;;5046899;28;20259;-75
2023/09/19 05:57:51;;;;;;;17.90;6.35;;;15.60;99.90;;;;;;5049824;28;20298;-74
2023/09/19 06:00:22;;;;;;;9.70;3.58;;;15.70;99.90;;;;;;5050124;28;20201;-76
2023/09/19 06:02:51;;;;;;;10.52;3.55;;;15.80;99.90;;;;;;5050680;28;20271;-76
2023/09/19 06:05:19;;;;;;;8.25;3.15;;;16.00;99.90;;;;;;5050565;28;20558;-75
2023/09/19 06:07:47;;;;;;;9.75;2.80;;;16.30;99.90;;;;;;5044967;28;20284;-76
2023/09/19 06:10:14;;;;;;;9.65;3.40;;;16.50;99.90;;;;;;5052241;28;20204;-76
2023/09/19 06:12:43;;;;;;;9.77;3.03;;;16.60;99.90;;;;;;5053132;28;20198;-79
2023/09/19 06:15:14;;;;;;;8.65;2.90;;;16.50;99.90;;;;;;5049480;28;20213;-77
2023/09/19 06:18:33;;;;;;;16.30;4.40;;;16.40;99.90;;;;;;5053265;28;20709;-78
2023/09/19 06:21:05;;;;;;;13.43;3.47;;;16.20;99.90;;;;;;5046394;28;20202;-74
2023/09/19 06:23:59;;;;;;;10.70;3.00;;;16.20;99.90;;;;;;5050402;28;20198;-76
2023/09/19 06:26:30;;;;;;;11.05;3.70;;;16.00;99.90;;;;;;5052503;28;20679;-77
2023/09/19 06:28:59;;;;;;;9.70;2.92;;;16.00;99.90;;;;;;5047221;28;20573;-76
2023/09/19 06:31:28;;;;;;;14.35;4.65;;;16.00;99.90;;;;;;5047687;28;20202;-78
2023/09/19 06:33:54;;;;;;;9.40;3.53;;;16.10;99.90;;;;;;5045974;28;20192;-77
2023/09/19 06:36:26;;;;;;;8.80;3.40;;;16.10;99.90;;;;;;5050182;28;20228;-77
2023/09/19 06:38:54;;;;;;;9.45;3.85;;;16.00;99.90;;;;;;5052954;28;20230;-77
2023/09/19 06:41:25;;;;;;;11.65;5.30;;;16.00;99.90;;;;;;5053067;28;20240;-78
2023/09/19 06:43:53;;;;;;;10.02;2.95;;;16.00;99.90;;;;;;5045216;28;20199;-76
2023/09/19 06:46:20;;;;;;;11.15;3.85;;;16.10;99.90;;;;;;5052757;28;20224;-78
2023/09/19 06:48:53;;;;;;;16.15;3.45;;;16.10;99.90;;;;;;5050470;28;20317;-78
2023/09/19 06:51:29;;;;;;;18.20;4.00;;;16.00;99.90;;;;;;5048275;28;20228;-79
2023/09/19 06:53:58;;;;;;;15.20;4.20;;;16.20;99.90;;;;;;5050970;28;20201;-78
2023/09/19 06:56:25;;;;;;;12.13;3.95;;;16.20;99.90;;;;;;5050838;28;20621;-76
2023/09/19 06:58:53;;;;;;;9.88;3.80;;;16.30;99.90;;;;;;5044693;28;20669;-76
2023/09/19 07:01:20;;;;;;;11.40;3.47;;;16.50;99.90;;;;;;5052799;28;20209;-78
2023/09/19 07:03:47;;;;;;;8.13;3.08;;;16.50;99.90;;;;;;5053309;28;20216;-80
2023/09/19 07:06:14;;;;;;;7.95;2.90;;;16.60;99.90;;;;;;5047454;28;20280;-80
2023/09/19 07:08:45;;;;;;;9.50;2.70;;;16.70;99.90;;;;;;5051888;28;20264;-81
2023/09/19 07:11:36;;;;;;;14.40;3.10;;;16.60;99.90;;;;;;5051591;28;20202;-79
2023/09/19 07:14:05;;;;;;;9.25;2.60;;;16.80;99.90;;;;;;5050953;28;20457;-78
2023/09/19 07:16:42;;;;;;;9.10;2.60;;;16.80;99.90;;;;;;5060178;28;20220;-77
2023/09/19 07:19:09;;;;;;;13.20;4.10;;;16.90;99.90;;;;;;5051515;28;20209;-79
2023/09/19 07:21:39;;;;;;;8.97;2.37;;;16.70;99.90;;;;;;5058028;28;20230;-79
2023/09/19 07:24:08;;;;;;;13.13;2.90;;;17.50;99.90;;;;;;5051619;28;20992;-80
2023/09/19 07:26:36;;;;;;;7.13;2.60;;;18.80;99.90;;;;;;5051223;28;20973;-80
2023/09/19 07:29:03;;;;;;;6.37;2.40;;;19.50;99.90;;;;;;5044750;28;20470;-78
2023/09/19 07:31:30;;;;;;;9.53;2.77;;;19.60;99.90;;;;;;5051321;28;20492;-80
2023/09/19 07:33:57;;;;;;;7.77;4.00;;;19.80;99.90;;;;;;5048236;28;20451;-79
2023/09/19 07:36:37;;;;;;;13.47;3.43;;;19.60;99.90;;;;;;5050799;28;21016;-79
2023/09/19 07:39:06;;;;;;;16.80;3.23;;;19.60;99.90;;;;;;5045251;28;20465;-79
2023/09/19 07:41:35;;;;;;;10.03;3.27;;;19.20;99.90;;;;;;5055626;28;20443;-78
2023/09/19 07:44:02;;;;;;;9.10;3.80;;;19.60;99.90;;;;;;5054671;28;20477;-78
2023/09/19 07:46:31;;;;;;;8.60;2.97;;;20.30;99.90;;;;;;5054785;28;20561;-78
2023/09/19 07:49:00;;;;;;;24.50;4.17;;;20.80;99.90;;;;;;5054247;28;20496;-77
2023/09/19 07:51:26;;;;;;;11.90;3.43;;;21.60;99.90;;;;;;5047778;28;20447;-80
2023/09/19 07:53:54;;;;;;;10.63;3.00;;;21.60;99.90;;;;;;5043627;28;20504;-78
2023/09/19 07:56:22;;;;;;;11.50;4.43;;;21.50;99.90;;;;;;5054116;28;20476;-78
2023/09/19 07:58:52;;;;;;;18.73;3.90;;;21.40;99.90;;;;;;5044930;28;20439;-78
2023/09/19 08:01:19;;;;;;;9.03;3.17;;;21.50;99.90;;;;;;5048974;28;20514;-78
2023/09/19 08:03:56;;;;;;;14.90;3.23;;;21.60;99.90;;;;;;5044786;28;20538;-78
2023/09/19 08:06:23;;;;;;;10.67;3.53;;;22.30;99.90;;;;;;5048451;28;20508;-78
2023/09/19 08:08:54;;;;;;;9.37;2.50;;;22.70;98.10;;;;;;5054115;28;20991;-78
2023/09/19 08:11:24;;;;;;;19.50;3.60;;;22.40;96.20;;;;;;5046764;28;20442;-77
2023/09/19 08:13:52;;;;;;;12.43;3.10;;;21.80;96.70;;;;;;5054492;28;20438;-78
2023/09/19 08:16:22;;;;;;;10.57;2.73;;;21.60;97.60;;;;;;5050203;28;20549;-77
2023/09/19 08:18:52;;;;;;;6.87;2.50;;;21.40;98.90;;;;;;5046500;28;20794;-79
2023/09/19 08:21:19;;;;;;;8.13;2.30;;;21.20;98.60;;;;;;5047906;28;20453;-78
2023/09/19 08:23:46;;;;;;;8.43;2.40;;;21.20;99.60;;;;;;5054435;28;20859;-76
2023/09/19 08:26:13;;;;;;;9.83;3.20;;;21.50;99.00;;;;;;5049367;28;20454;-78
2023/09/19 08:28:40;;;;;;;9.17;3.33;;;21.80;98.60;;;;;;5051631;28;20991;-78
2023/09/19 08:31:09;;;;;;;7.83;3.30;;;21.80;97.60;;;;;;5050023;28;20512;-76
2023/09/19 08:33:38;;;;;;;8.97;2.97;;;21.40;98.10;;;;;;5046352;28;20446;-76
2023/09/19 08:36:05;;;;;;;4.63;2.10;;;21.20;98.90;;;;;;5052232;28;20476;-75
2023/09/19 08:38:33;;;;;;;16.77;2.80;;;21.20;98.70;;;;;;5048117;28;20445;-76
2023/09/19 08:41:00;;;;;;;11.57;3.30;;;21.10;98.60;;;;;;5051615;28;20530;-77
2023/09/19 08:43:28;;;;;;;8.43;3.40;;;20.70;99.70;;;;;;5043933;28;20537;-77
2023/09/19 08:46:05;;;;;;;10.73;2.27;;;21.00;99.90;;;;;;5053620;28;20537;-77
2023/09/19 08:48:38;;;;;;;9.13;2.70;;;21.50;98.90;;;;;;5035134;28;20482;-76
2023/09/19 08:51:08;;;;;;;5.83;2.43;;;22.30;97.00;;;;;;5044082;28;20548;-76
2023/09/19 08:53:46;;;;;;;4.73;2.13;;;22.20;95.90;;;;;;5053628;28;20481;-76
2023/09/19 08:56:14;;;;;;;8.20;2.80;;;22.10;95.70;;;;;;5048075;28;20872;-76
2023/09/19 08:58:51;;;;;;;13.33;3.10;;;22.30;96.00;;;;;;5049415;28;20442;-76
2023/09/19 09:01:24;;;;;;;12.83;3.10;;;22.70;95.80;;;;;;5047960;28;20525;-77
2023/09/19 09:03:53;;;;;;;9.17;3.10;;;22.50;95.10;;;;;;5034551;28;20521;-76
2023/09/19 09:06:23;;;;;;;7.83;2.40;;;22.00;95.30;;;;;;5056383;28;20552;-76
2023/09/19 09:08:53;;;;;;;3.57;1.87;;;21.80;95.50;;;;;;5055292;28;20474;-76
2023/09/19 09:11:21;;;;;;;6.60;2.50;;;21.50;95.90;;;;;;5058057;28;20917;-77
2023/09/19 09:13:49;;;;;;;6.47;2.03;;;21.90;96.40;;;;;;5054021;28;20449;-77
2023/09/19 09:16:18;;;;;;;8.87;2.83;;;21.90;96.10;;;;;;5050954;28;20495;-77
2023/09/19 09:18:45;;;;;;;8.90;2.97;;;21.90;95.70;;;;;;5054734;28;20453;-76
2023/09/19 09:21:15;;;;;;;9.00;2.10;;;21.60;95.90;;;;;;5056882;28;20446;-76
2023/09/19 09:23:42;;;;;;;12.43;2.60;;;21.60;95.90;;;;;;5052307;28;20504;-76
2023/09/19 09:26:09;;;;;;;7.33;2.60;;;21.90;95.70;;;;;;5054467;28;20548;-76
2023/09/19 09:28:38;;;;;;;8.67;3.10;;;22.70;95.20;;;;;;5049320;28;20570;-77
2023/09/19 09:31:09;;;;;;;7.47;2.43;;;22.90;94.40;;;;;;5052997;28;20529;-77
2023/09/19 09:33:36;;;;;;;8.80;2.50;;;22.80;93.70;;;;;;5051526;28;20464;-74
2023/09/19 09:36:06;;;;;;;10.20;3.57;;;22.80;94.30;;;;;;5047044;28;20549;-73
2023/09/19 09:38:48;;;;;;;12.27;2.50;;;22.50;94.00;;;;;;5051316;28;20959;-74
2023/09/19 09:41:27;;;;;;;7.30;2.57;;;22.60;93.70;;;;;;5044930;28;20533;-75
2023/09/19 09:43:54;;;;;;;8.70;2.70;;;22.60;92.70;;;;;;5032511;28;21168;-75
2023/09/19 09:52:05;;;;;;;10.40;2.17;;;22.20;93.30;;;;;;5050127;28;20434;-76
2023/09/19 09:57:44;;;;;;;9.63;3.17;;;21.50;93.60;;;;;;5069138;28;20674;-74
2023/09/19 10:00:20;;;;;;;11.00;3.40;;;20.20;96.00;;;;;;5067679;28;20457;-74
2023/09/19 10:02:47;;;;;;;13.97;2.23;;;20.00;97.50;;;;;;5063865;28;20832;-74
2023/09/19 10:05:20;;;;;;;10.80;3.00;;;20.20;97.70;;;;;;5062989;28;20443;-74
2023/09/19 10:07:49;;;;;;;8.30;2.53;;;20.40;98.30;;;;;;5064469;28;20797;-73
2023/09/19 10:10:37;;;;;;;10.60;2.83;;;20.70;97.90;;;;;;5056769;28;20456;-75
2023/09/19 10:13:07;;;;;;;14.87;3.10;;;20.50;97.00;;;;;;5069037;28;20498;-76
2023/09/19 10:15:36;;;;;;;8.70;3.63;;;20.20;97.30;;;;;;5062715;28;20483;-74
2023/09/19 10:18:08;;;;;;;5.67;2.77;;;20.00;98.40;;;;;;5059493;28;20495;-74
2023/09/19 10:20:38;;;;;;;15.57;4.37;;;19.80;98.10;;;;;;5064251;28;20975;-76
2023/09/19 10:23:10;;;;;;;8.00;3.20;;;20.00;98.10;;;;;;5064352;28;20966;-73
2023/09/19 10:25:39;;;;;;;12.67;4.00;;;19.90;98.10;;;;;;5064631;28;20439;-73
2023/09/19 10:28:11;;;;;;;11.70;3.17;;;19.90;98.70;;;;;;5068039;28;20441;-75
2023/09/19 10:30:44;;;;;;;9.07;3.10;;;19.80;98.50;;;;;;5062506;28;20442;-76
2023/09/19 10:33:12;;;;;;;11.33;3.00;;;19.80;99.30;;;;;;5061568;28;20446;-76
2023/09/19 10:35:42;;;;;;;10.90;2.73;;;19.80;99.50;;;;;;5064882;28;20647;-76
2023/09/19 10:38:12;;;;;;;8.83;3.20;;;19.80;99.10;;;;;;5062861;28;20472;-74
2023/09/19 10:40:43;;;;;;;16.07;2.73;;;19.80;99.30;;;;;;5060642;28;20446;-75
2023/09/19 10:43:17;;;;;;;11.70;2.90;;;19.80;99.00;;;;;;5063989;28;20805;-73
2023/09/19 10:45:46;;;;;;;7.10;2.77;;;19.70;98.10;;;;;;5059554;28;20982;-74
2023/09/19 10:48:13;;;;;;;9.73;2.80;;;19.90;98.50;;;;;;5061445;28;20797;-75
2023/09/19 10:50:47;;;;;;;9.80;3.37;;;20.00;98.20;;;;;;5065206;28;20469;-74
2023/09/19 10:53:15;;;;;;;6.30;2.77;;;20.20;97.70;;;;;;5063108;28;20444;-73
2023/09/19 10:55:49;;;;;;;10.37;2.47;;;20.20;97.60;;;;;;5063277;28;20548;-75
2023/09/19 10:58:28;;;;;;;9.07;2.70;;;20.40;97.40;;;;;;5065100;28;20447;-75
2023/09/19 11:00:57;;;;;;;8.37;2.77;;;20.30;97.10;;;;;;5058218;28;20445;-74
2023/09/19 11:03:30;;;;;;;12.37;3.10;;;20.30;97.70;;;;;;5064253;28;20963;-76
2023/09/19 11:06:04;;;;;;;14.30;3.43;;;20.40;97.40;;;;;;5069115;28;20515;-75
2023/09/19 11:08:52;;;;;;;12.53;2.43;;;20.40;96.90;;;;;;5056633;28;20491;-76
2023/09/19 11:11:41;;;;;;;11.77;4.20;;;20.50;96.50;;;;;;5053329;28;20437;-74
2023/09/19 11:14:52;;;;;;;8.80;3.83;;;20.50;96.10;;;;;;5055958;28;20476;-74
2023/09/19 11:17:46;;;;;;;10.70;3.87;;;20.60;96.20;;;;;;5063035;28;20543;-75
2023/09/19 11:20:42;;;;;;;11.40;3.67;;;20.50;96.40;;;;;;5061365;28;20472;-75
2023/09/19 11:23:22;;;;;;;8.50;2.67;;;20.50;96.40;;;;;;5057103;28;20457;-75
2023/09/19 11:25:50;;;;;;;7.30;3.67;;;20.50;96.20;;;;;;5047631;28;20472;-76
2023/09/19 11:28:34;;;;;;;11.70;3.97;;;20.60;96.40;;;;;;5052175;28;20503;-75
2023/09/19 11:31:56;;;;;;;10.90;3.40;;;20.60;96.50;;;;;;5051004;28;20449;-74
2023/09/19 11:34:55;;;;;;;5.77;2.03;;;20.70;96.20;;;;;;5045140;28;20791;-76
2023/09/19 11:40:54;;;;;;;9.77;3.53;;;21.20;95.20;;;;;;5055495;28;20437;-74
2023/09/19 11:43:34;;;;;;;10.40;2.77;;;21.00;94.60;;;;;;5055337;28;20453;-76
2023/09/19 11:46:11;;;;;;;12.77;3.27;;;20.90;95.40;;;;;;5050869;28;20456;-76
2023/09/19 11:48:43;;;;;;;7.70;2.67;;;21.10;95.30;;;;;;5054462;28;20773;-74
2023/09/19 11:51:22;;;;;;;7.73;3.03;;;21.00;94.80;;;;;;5045412;28;20877;-74
2023/09/19 11:53:49;;;;;;;10.13;3.13;;;21.10;93.90;;;;;;5049850;28;20975;-75
2023/09/19 11:56:18;;;;;;;7.27;2.60;;;20.80;94.00;;;;;;5043713;28;20489;-76
2023/09/19 11:58:48;;;;;;;7.03;2.20;;;20.60;94.40;;;;;;5045849;28;20471;-74
2023/09/19 12:01:25;;;;;;;14.40;3.70;;;20.60;94.70;;;;;;5046106;28;20457;-76
2023/09/19 12:03:54;;;;;;;11.50;3.03;;;20.60;94.70;;;;;;5052709;28;20444;-74
2023/09/19 12:06:22;;;;;;;8.30;2.80;;;20.50;94.60;;;;;;5047573;28;20964;-76
2023/09/19 12:08:50;;;;;;;7.43;3.80;;;20.70;94.80;;;;;;5052861;28;20470;-74
2023/09/19 12:11:19;;;;;;;18.63;3.37;;;20.70;94.90;;;;;;5050726;28;20453;-75
2023/09/19 12:13:48;;;;;;;9.80;3.10;;;20.80;95.10;;;;;;5053359;28;20453;-75
2023/09/19 12:16:21;;;;;;;10.20;2.73;;;21.00;95.00;;;;;;5050678;28;20493;-74
2023/09/19 12:18:50;;;;;;;8.90;3.30;;;20.90;94.20;;;;;;5053492;28;20541;-74
2023/09/19 12:21:26;;;;;;;10.67;3.30;;;21.00;94.20;;;;;;5052383;28;20946;-74
2023/09/19 12:24:01;;;;;;;4.57;2.60;;;21.00;94.30;;;;;;5053642;28;20449;-75
2023/09/19 12:26:29;;;;;;;7.10;2.80;;;20.90;93.70;;;;;;5048613;28;20501;-74
2023/09/19 12:28:57;;;;;;;8.23;2.93;;;20.70;93.70;;;;;;5051999;28;20454;-76
2023/09/19 12:31:26;;;;;;;8.03;2.67;;;20.50;94.20;;;;;;5042840;28;20462;-76
2023/09/19 12:33:56;;;;;;;8.07;3.07;;;20.60;94.40;;;;;;5049681;28;20472;-77
2023/09/19 12:36:29;;;;;;;8.63;2.90;;;20.70;94.50;;;;;;5051343;28;20529;-74
2023/09/19 12:38:58;;;;;;;7.13;2.60;;;20.70;94.40;;;;;;5047397;28;20448;-75
2023/09/19 12:41:26;;;;;;;6.33;3.00;;;20.80;94.70;;;;;;5047802;28;20878;-76
2023/09/19 12:43:54;;;;;;;7.80;2.67;;;20.80;94.50;;;;;;5050903;28;20452;-74
2023/09/19 12:46:25;;;;;;;8.70;3.27;;;20.90;94.80;;;;;;5046570;28;20937;-75
2023/09/19 12:49:18;;;;;;;8.30;2.80;;;21.00;94.00;;;;;;5039509;28;20498;-74
2023/09/19 12:51:46;;;;;;;12.50;2.70;;;21.10;94.00;;;;;;5047359;28;20532;-75
2023/09/19 12:54:15;;;;;;;9.00;2.87;;;21.20;94.20;;;;;;5049473;28;20548;-75
2023/09/19 12:56:44;;;;;;;8.67;2.70;;;21.00;94.10;;;;;;5048999;28;20525;-75
2023/09/19 12:59:13;;;;;;;15.23;3.13;;;21.00;94.20;;;;;;5035645;28;20442;-74
2023/09/19 13:01:45;;;;;;;12.40;3.90;;;21.00;94.00;;;;;;5047631;28;20529;-75
2023/09/19 13:04:18;;;;;;;6.10;2.40;;;20.90;94.00;;;;;;5046463;28;20507;-75
2023/09/19 13:06:45;;;;;;;10.77;3.30;;;20.80;94.30;;;;;;5042143;28;20568;-76
2023/09/19 13:09:14;;;;;;;9.53;2.60;;;20.70;94.40;;;;;;5050421;28;20454;-76
2023/09/19 13:11:43;;;;;;;12.53;3.77;;;20.70;95.00;;;;;;5039925;28;20449;-74
2023/09/19 13:14:23;;;;;;;12.20;3.40;;;20.70;95.00;;;;;;5045919;28;20450;-73